• Join FlightAware (Why Join?)
  • Login
  • US Flag 
12:54PM EST


 

Airport Tracker/Info


-or-


 

Live Flight TrackerFlight Track Log ✈ C-GIWP ✈ 17-Apr-2013 ✈ KILM - CYKZ

Flight Track Log - Related Links

Times and Time Zones

All times are in EDT time to prevent confusion due to time zone crossing. See the C-GIWP flight status page for this flight to view local times or setup timezone preferences in your user account.

Time Position Orientation Groundspeed Altitude Reporting Facility
EDT Latitude Longitude Course Direction KTS MPH feet Rate Location/Type
03:11PM 34.5402 -77.9393 353° North  Level FlightAware Approximate
03:12PM 34.5858 -77.9460 353° North  Level FlightAware Approximate
03:13PM 34.6315 -77.9527 353° North  Level FlightAware Approximate
03:14PM 34.6772 -77.9595 353° North  Level FlightAware Approximate
03:15PM 34.7228 -77.9662 353° North  Level FlightAware Approximate
03:16PM 34.7685 -77.9730 353° North  Level FlightAware Approximate
03:17PM 34.8141 -77.9798 353° North  Level FlightAware Approximate
03:17PM 34.7725 -77.9461 353° North 165 190 5,900  Level Washington Center
03:18PM 34.8597 -77.9866 353° North  Level FlightAware Approximate
03:18PM 34.8183 -77.9550 351° North 166 191 5,900  Level Washington Center
03:19PM 34.9054 -77.9934 353° North  Level FlightAware Approximate
03:19PM 34.8681 -77.9639 352° North 167 192 5,900  Level Washington Center
03:20PM 34.9511 -78.0002 353° North  Level FlightAware Approximate
03:20PM 34.9139 -77.9703 353° North 168 193 5,900  Level Washington Center
03:21PM 34.9967 -78.0074 353° North  Level FlightAware Approximate
03:21PM 34.9617 -77.9769 353° North 164 189 6,200  Level Washington Center
03:22PM 35.0423 -78.0146 353° North  Level FlightAware Approximate
03:22PM 35.0014 -77.9856 350° North 151 174 6,500  Level Washington Center
03:23PM 35.0879 -78.0218 353° North  Level FlightAware Approximate
03:23PM 35.0428 -77.9894 356° North 146 168 6,800  Level Washington Center
03:24PM 35.0803 -77.9981 349° North 145 167 7,100 360 Climbing Washington Center
03:25PM 35.1219 -78.0044 353° North 138 159 7,600 300 Climbing Washington Center
03:26PM 35.1594 -78.0081 355° North 137 158 7,800 120 Climbing Washington Center
03:27PM 35.1969 -78.0142 352° North 138 159 7,900  Climbing Washington Center
03:28PM 35.2425 -78.0208 353° North 159 183 7,900  Level Washington Center
03:29PM 35.2864 -78.0272 353° North 160 184 8,000  Climbing Washington Center
03:30PM 35.3319 -78.0361 351° North 165 190 8,000  Level Washington Center
03:31PM 35.3778 -78.0428 353° North 167 192 8,000  Level Washington Center
03:32PM 35.4214 -78.0517 351° North 164 189 8,000  Level Washington Center
03:33PM 35.4694 -78.0556 356° North 165 190 8,000  Level Washington Center
03:34PM 35.4881 -78.0561 359° North 166 191 8,000  Level Washington Center
03:34PM 35.5214 -78.0650 348° North 167 192 8,000  Level Washington Center
03:36PM 35.5775 -78.0692 357° North 172 198 8,000  Level Washington Center
03:37PM 35.6233 -78.0783 351° North 172 198 8,000  Level Washington Center
03:38PM 35.6711 -78.0850 354° North 172 198 8,000  Level Washington Center
03:39PM 35.7189 -78.0914 354° North 172 198 8,000  Level Washington Center
03:40PM 35.7647 -78.0981 353° North 172 198 8,000  Level Washington Center
03:41PM 35.8103 -78.1097 348° North 172 198 8,000  Level Washington Center
03:42PM 35.8561 -78.1139 356° North 167 192 8,000  Level Washington Center
03:42PM 35.8686 -78.1192 341° North 165 190 8,000  Level Washington Center
03:43PM 35.9019 -78.1231 355° North 157 181 8,000  Level Washington Center
03:43PM 35.9289 -78.1289 350° North 164 189 8,000  Level Washington Center
03:44PM 35.9414 -78.1294 358° North 162 186 8,000  Level Washington Center
03:44PM 35.9747 -78.1331 355° North 165 190 8,000  Level Washington Center
03:45PM 35.9914 -78.1361 352° North 162 186 8,000  Level Washington Center
03:45PM 36.0186 -78.1344 North 158 182 8,000  Level Washington Center
03:46PM 36.0311 -78.1297 17° North 157 181 8,000  Level Washington Center
03:46PM 36.0606 -78.1228 11° North 169 194 8,000  Level Washington Center
03:47PM 36.0814 -78.1236 358° North 163 188 8,000  Level Washington Center
03:47PM 36.1042 -78.1242 359° North 171 197 8,000  Level Washington Center
03:48PM 36.1314 -78.1225 North 173 199 8,000  Level Washington Center
03:49PM 36.1756 -78.1111 12° North 183 211 8,000  Level Washington Center
03:50PM 36.2214 -78.1153 356° North 173 199 8,000  Level Washington Center
03:51PM 36.2669 -78.1217 354° North 167 192 8,000  Level Washington Center
03:52PM 36.3083 -78.1386 342° North 167 192 8,000  Level Washington Center
03:53PM 36.3539 -78.1581 341° North 167 192 8,000  Level Washington Center
03:54PM 36.3994 -78.1803 339° North 167 192 8,000  Level Washington Center
03:55PM 36.4428 -78.1997 340° North 167 192 8,000  Level Washington Center
03:56PM 36.4861 -78.2192 340° North 167 192 8,000  Level Washington Center
03:57PM 36.5297 -78.2336 345° North 167 192 8,000  Level Washington Center
03:58PM 36.5753 -78.2406 353° North 162 186 8,000  Level Washington Center
03:59PM 36.6211 -78.2497 351° North 162 186 8,000  Level Washington Center
04:00PM 36.6689 -78.2592 351° North 162 186 8,000  Level Washington Center
04:01PM 36.7083 -78.2708 347° North 167 192 8,000  Level Washington Center
04:02PM 36.7517 -78.2853 345° North 161 185 8,000  Level Washington Center
04:03PM 36.7972 -78.3000 345° North 161 185 8,000  Level Washington Center
04:04PM 36.8431 -78.3092 351° North 161 185 8,000  Level Washington Center
04:05PM 36.8867 -78.3186 350° North 161 185 8,000  Level Washington Center
04:06PM 36.9364 -78.3256 354° North 166 191 8,000  Level Washington Center
04:07PM 36.9803 -78.3244 North 161 185 8,100  Climbing Washington Center
04:08PM 37.0283 -78.3183 North 161 185 8,100 -60 Level Washington Center
04:09PM 37.0806 -78.3175 North 161 185 8,000 -60 Descending Washington Center
04:10PM 37.1286 -78.3167 North 161 185 8,000  Level Washington Center
04:11PM 37.1722 -78.3208 356° North 161 185 8,100  Climbing Washington Center
04:12PM 37.2181 -78.3331 348° North 161 185 8,000 -60 Descending Washington Center
04:13PM 37.2617 -78.3422 351° North 161 185 8,000  Level Washington Center
04:14PM 37.3072 -78.3517 351° North 161 185 8,100  Climbing Washington Center
04:15PM 37.3550 -78.3586 353° North 161 185 8,000 -60 Descending Washington Center
04:16PM 37.4050 -78.3658 353° North 161 185 8,000  Level Washington Center
04:17PM 37.4528 -78.3753 351° North 161 185 8,000  Level Washington Center
04:18PM 37.4983 -78.3822 353° North 161 185 8,000  Level Washington Center
04:19PM 37.5461 -78.3919 351° North 161 185 8,000  Level Washington Center
04:20PM 37.5897 -78.3986 353° North 161 185 8,100  Climbing Washington Center
04:21PM 37.6356 -78.4083 350° North 161 185 8,000  Descending Washington Center
04:22PM 37.6833 -78.4128 356° North 161 185 8,100  Climbing Washington Center
04:23PM 37.7353 -78.4225 352° North 166 191 8,100  Level Washington Center
04:24PM 37.7831 -78.4294 353° North 166 191 8,100  Level Washington Center
04:25PM 37.8308 -78.4392 351° North 166 191 8,100  Level Washington Center
04:27PM 37.9333 -78.4667 348° North 176 203 8,100  Level Potomac TRACON
04:28PM 37.9667 -78.4667 360° North 174 200 8,100  Level Potomac TRACON
04:29PM 38.0167 -78.4833 345° North 176 203 8,100  Level Potomac TRACON
04:30PM 38.0667 -78.4833 360° North 175 201 8,100 -60 Level Potomac TRACON
04:31PM 38.1167 -78.5000 345° North 180 207 8,000 -60 Descending Potomac TRACON
04:32PM 38.1667 -78.5000 360° North 183 211 8,000  Level Potomac TRACON
04:33PM 38.2167 -78.5000 360° North 179 206 8,100  Climbing Potomac TRACON
04:34PM 38.2667 -78.5167 345° North 174 200 8,100  Level Potomac TRACON
04:34PM 38.3000 -78.5167 360° North 172 198 8,100 -60 Level Potomac TRACON
04:35PM 38.3500 -78.5333 345° North 176 203 8,000 -60 Descending Potomac TRACON
04:37PM 38.4019 -78.5431 352° North 184 212 8,000  Level Washington Center
04:38PM 38.4431 -78.5581 344° North 173 199 8,000  Level Washington Center
04:39PM 38.4883 -78.5917 330° Northwest 168 193 8,100  Climbing Washington Center
04:40PM 38.5211 -78.6142 332° Northwest 163 188 8,100 -60 Level Washington Center
04:41PM 38.5731 -78.6217 354° North 157 181 8,000  Descending Washington Center
04:42PM 38.6167 -78.6261 355° North 162 186 8,100  Climbing Washington Center
04:43PM 38.6689 -78.6256 360° North 169 194 8,000  Descending Washington Center
04:44PM 38.7106 -78.6247 North 169 194 8,100  Climbing Washington Center
04:45PM 38.7667 -78.6322 354° North 174 200 8,100 -60 Level Washington Center
04:46PM 38.8167 -78.6344 358° North 179 206 8,000  Descending Washington Center
04:47PM 38.8644 -78.6364 358° North 179 206 8,100  Climbing Washington Center
04:48PM 38.9083 -78.6356 North 173 199 8,000 -60 Descending Washington Center
04:49PM 38.9542 -78.6347 North 173 199 8,000  Level Washington Center
04:50PM 39.0019 -78.6367 358° North 173 199 8,000  Level Washington Center
04:51PM 39.0539 -78.6469 351° North 173 199 8,100  Climbing Washington Center
04:52PM 39.0933 -78.6511 355° North 168 193 8,000  Descending Washington Center
04:53PM 39.1453 -78.6614 351° North 168 193 8,100  Climbing Washington Center
04:54PM 39.1825 -78.6683 352° North 157 181 8,000  Descending Washington Center
04:55PM 39.2303 -78.6758 353° North 167 192 8,100  Climbing Washington Center
04:56PM 39.2758 -78.6856 351° North 167 192 8,000  Descending Washington Center
04:57PM 39.3594 -78.7011 352° North 168 193 8,100 60 Climbing Cleveland Center
04:58PM 39.4056 -78.7158 346° North 167 192 8,200  Climbing Cleveland Center
04:59PM 39.4517 -78.7200 356° North 167 192 8,100 -120 Descending Cleveland Center
05:00PM 39.5039 -78.7294 352° North 171 197 8,000 -60 Descending Cleveland Center
05:01PM 39.5436 -78.7364 352° North 169 194 8,000  Level Cleveland Center
05:02PM 39.5875 -78.7461 350° North 164 189 8,000  Level Cleveland Center
05:03PM 39.6314 -78.7528 353° North 162 186 8,000  Level Cleveland Center
05:04PM 39.6772 -78.7569 356° North 161 185 8,000  Level Cleveland Center
05:05PM 39.7256 -78.7692 349° North 163 188 8,000  Level Cleveland Center
05:06PM 39.7694 -78.7789 350° North 167 192 8,100  Climbing Cleveland Center
05:07PM 39.8153 -78.7858 353° North 168 193 8,000 -60 Descending Cleveland Center
05:08PM 39.8614 -78.7928 353° North 167 192 8,000  Level Cleveland Center
05:09PM 39.9136 -78.8019 352° North 169 194 8,100  Climbing Cleveland Center
05:10PM 39.9594 -78.8089 353° North 170 196 8,000 -60 Descending Cleveland Center
05:11PM 40.0036 -78.8186 350° North 169 194 8,000  Level Cleveland Center
05:12PM 40.0514 -78.8256 354° North 170 196 8,000  Level Cleveland Center
05:13PM 40.0997 -78.8353 351° North 169 194 8,100 60 Climbing Cleveland Center
05:14PM 40.1456 -78.8450 351° North 167 192 8,200  Climbing Cleveland Center
05:15PM 40.1917 -78.8492 356° North 165 190 8,200  Level Cleveland Center
05:16PM 40.2356 -78.8617 348° North 167 192 8,200  Level Cleveland Center
05:17PM 40.2897 -78.8683 355° North 167 192 8,300  Climbing Cleveland Center
05:19PM 40.3400 -78.8806 350° North 169 194 8,300 -180 Level Cleveland Center
05:20PM 40.3881 -78.8875 354° North 175 201 8,000 -180 Descending Cleveland Center
05:21PM 40.4361 -78.8972 351° North 173 199 8,000  Level Cleveland Center
05:22PM 40.4842 -78.9042 354° North 169 194 8,000  Level Cleveland Center
05:23PM 40.5322 -78.9114 353° North 168 193 8,000  Level Cleveland Center
05:24PM 40.5783 -78.9211 351° North 168 193 8,000 -120 Level Cleveland Center
05:24PM 40.5972 -78.9233 355° North 169 194 7,900  Descending Cleveland Center
05:25PM 40.6242 -78.9281 352° North 168 193 8,000  Climbing Cleveland Center
05:25PM 40.6389 -78.9306 353° North 169 194 7,900 -120 Descending Cleveland Center
05:26PM 40.6850 -78.9375 353° North 174 200 7,900  Level Cleveland Center
05:27PM 40.7331 -78.9500 349° North 174 200 7,900  Level Cleveland Center
05:28PM 40.7789 -78.9597 351° North 174 200 8,000  Climbing Cleveland Center
05:29PM 40.8228 -78.9669 353° North 168 193 8,000  Level Cleveland Center
05:30PM 40.8689 -78.9769 351° North 163 188 8,000  Level Cleveland Center
05:31PM 40.9150 -78.9839 354° North 163 188 8,000  Level Cleveland Center
05:32PM 40.9608 -78.9911 353° North 163 188 8,000  Level Cleveland Center
05:33PM 41.0089 -78.9981 354° North 163 188 8,000 -60 Level Cleveland Center
05:34PM 41.0550 -79.0108 348° North 163 188 7,900  Descending Cleveland Center
05:35PM 41.1008 -79.0181 353° North 163 188 8,000  Climbing Cleveland Center
05:36PM 41.1469 -79.0225 356° North 163 188 8,000  Level Cleveland Center
05:37PM 41.1928 -79.0322 351° North 163 188 8,000  Level Cleveland Center
05:38PM 41.2408 -79.0422 351° North 163 188 8,000  Level Cleveland Center
05:39PM 41.2889 -79.0522 351° North 163 188 8,000  Level Cleveland Center
05:40PM 41.3369 -79.0594 354° North 163 188 8,000  Level Cleveland Center
05:41PM 41.3831 -79.0667 353° North 163 188 8,000  Level Cleveland Center
05:42PM 41.4289 -79.0767 351° North 163 188 8,000  Level Cleveland Center
05:43PM 41.4769 -79.0867 351° North 163 188 8,000  Level Cleveland Center
05:44PM 41.5250 -79.0939 354° North 163 188 8,000  Level Cleveland Center
05:45PM 41.5731 -79.1039 351° North 163 188 8,000  Level Cleveland Center
05:46PM 41.6211 -79.1139 351° North 163 188 8,000  Level Cleveland Center
05:47PM 41.6714 -79.1208 354° North 163 188 8,000  Level Cleveland Center
05:48PM 41.7133 -79.1339 347° North 176 203 8,000  Level Cleveland Center
05:49PM 41.7653 -79.1411 354° North 176 203 8,000  Level Cleveland Center
05:50PM 41.8114 -79.1511 351° North 171 197 8,000  Level Cleveland Center
05:51PM 41.8594 -79.1586 353° North 166 191 8,000  Level Cleveland Center
05:52PM 41.9014 -79.1689 350° North 166 191 8,000  Level Cleveland Center
05:53PM 41.9492 -79.1733 356° North 166 191 8,100  Climbing Cleveland Center
05:54PM 42.0017 -79.1861 350° North 171 197 8,100  Level Cleveland Center
05:55PM 42.0517 -79.1961 352° North 171 197 8,100  Level Cleveland Center
05:57PM 42.1333 -79.1833 North 180 207 8,100  Level Toronto Center
05:58PM 42.1667 -79.2000 340° North 180 207 8,100  Level Toronto Center
05:59PM 42.2167 -79.2000 360° North 170 196 8,100  Level Toronto Center
06:00PM 42.2667 -79.2000 360° North 170 196 8,100  Level Toronto Center
06:01PM 42.3167 -79.2333 334° Northwest 170 196 8,100  Level Toronto Center
06:02PM 42.3667 -79.2333 360° North 170 196 8,100  Level Toronto Center
06:03PM 42.4167 -79.2500 346° North 170 196 8,100  Level Toronto Center
06:04PM 42.4500 -79.2500 360° North 170 196 8,100  Level Toronto Center
06:05PM 42.5000 -79.2500 360° North 170 196 8,100 -60 Level Toronto Center
06:06PM 42.5500 -79.2500 360° North 180 207 8,000 -240 Descending Toronto Center
06:07PM 42.6000 -79.2667 346° North 180 207 7,700 -360 Descending Toronto Center
06:08PM 42.6500 -79.2667 360° North 190 219 7,300 -420 Descending Toronto Center
06:09PM 42.7167 -79.2667 360° North 190 219 6,900 -420 Descending Toronto Center
06:10PM 42.7667 -79.2667 360° North 190 219 6,500 -360 Descending Toronto Center
06:11PM 42.8167 -79.2667 360° North 190 219 6,200 -300 Descending Toronto Center
06:12PM 42.8667 -79.3000 334° Northwest 180 207 6,000 -120 Descending Toronto Center
06:13PM 42.9167 -79.3000 360° North 170 196 6,000  Level Toronto Center
06:14PM 42.9667 -79.2833 14° North 170 196 6,000  Level Toronto Center
06:15PM 43.0000 -79.2833 360° North 170 196 6,000  Level Toronto Center
06:16PM 43.0500 -79.2833 360° North 170 196 6,000  Level Toronto Center
06:17PM 43.1000 -79.2833 360° North 170 196 6,000 -60 Level Toronto Center
06:18PM 43.1500 -79.2833 360° North 170 196 5,900 -540 Descending Toronto Center
06:19PM 43.2000 -79.2833 360° North 190 219 5,000 -420 Descending Toronto Center
06:21PM 43.3000 -79.2833 360° North 180 207 4,800 -180 Descending Toronto Center
06:22PM 43.3500 -79.2833 360° North 180 207 4,500 -420 Descending Toronto Center
06:23PM 43.4000 -79.2667 14° North 190 219 4,000 -300 Descending Toronto Center
06:24PM 43.4500 -79.2667 360° North 180 207 3,900 -300 Descending Toronto Center
06:25PM 43.5000 -79.2667 360° North 180 207 3,400 -540 Descending Toronto Center
06:26PM 43.5333 -79.2500 20° North 180 207 2,900 -300 Descending Toronto Center
06:27PM 43.5833 -79.2500 360° North 160 184 2,900  Level Toronto Center
06:28PM 43.6333 -79.2167 26° Northeast 160 184 3,000  Climbing Toronto Center
06:29PM 43.6833 -79.2333 346° North 160 184 2,900 -120 Descending Toronto Center
06:31PM 43.7667 -79.2667 344° North 170 196 2,700 -300 Descending Toronto Center
06:32PM 43.8167 -79.2833 346° North 180 207 2,100 -300 Descending Toronto Center
06:34PM 43.9000 -79.3500 330° Northwest 170 196 1,900 -300 Descending Toronto Center
06:35PM 43.8667 -79.3833 216° Southwest 120 138 1,200 -720 Descending Toronto Center